Time;durP1;ratioP1;P1;durP2;ratioP2;P2;SDS_P1;SDS_P2;PMS_P1;PMS_P2;Temp;Humidity;BMP_temperature;BMP_pressure;BME280_temperature;BME280_humidity;BME280_pressure;Samples;Min_cycle;Max_cycle;Signal;HPM_P1;HPM_P2
2022/01/21 00:01:14;;;;;;;7.47;2.95;;;16.20;38.80;;;;;;5085541;28;20047;-37
2022/01/21 00:03:40;;;;;;;6.32;2.70;;;16.10;38.70;;;;;;5103571;28;20042;-39
2022/01/21 00:06:06;;;;;;;7.00;2.72;;;16.10;38.70;;;;;;5085850;28;20012;-38
2022/01/21 00:08:34;;;;;;;7.57;3.10;;;16.10;38.70;;;;;;5102922;28;20012;-37
2022/01/21 00:11:00;;;;;;;8.07;3.33;;;16.10;38.70;;;;;;5102748;28;20027;-38
2022/01/21 00:13:36;;;;;;;8.18;3.10;;;16.10;38.70;;;;;;5102758;28;20020;-38
2022/01/21 00:16:06;;;;;;;8.32;3.38;;;16.10;38.70;;;;;;5102776;28;20016;-37
2022/01/21 00:18:33;;;;;;;8.52;3.05;;;16.10;38.70;;;;;;5103997;28;20020;-38
2022/01/21 00:31:57;;;;;;;10.48;2.92;;;16.10;38.70;;;;;;5104261;28;20063;-38
2022/01/21 00:34:31;;;;;;;9.63;3.10;;;16.00;38.60;;;;;;5104812;28;20042;-38
2022/01/21 00:36:58;;;;;;;8.13;2.80;;;16.00;38.60;;;;;;5105037;28;20013;-38
2022/01/21 00:39:24;;;;;;;8.88;3.17;;;16.10;38.60;;;;;;5085649;28;20027;-37
2022/01/21 00:44:34;;;;;;;7.05;2.78;;;16.00;38.60;;;;;;5103599;28;20031;-38
2022/01/21 00:47:01;;;;;;;8.05;2.88;;;16.00;38.50;;;;;;5103722;28;20036;-39
2022/01/21 00:49:27;;;;;;;8.63;3.50;;;16.00;38.60;;;;;;5085858;28;20189;-39
2022/01/21 00:51:53;;;;;;;6.50;2.90;;;16.00;38.70;;;;;;5104140;28;20024;-39
2022/01/21 00:54:19;;;;;;;10.98;3.13;;;16.00;38.70;;;;;;5103464;28;20056;-38
2022/01/21 00:56:46;;;;;;;7.88;2.50;;;16.00;38.70;;;;;;5084290;28;20463;-39
2022/01/21 00:59:12;;;;;;;7.38;2.72;;;16.00;38.60;;;;;;5083670;28;20170;-38
2022/01/21 01:01:37;;;;;;;5.75;2.70;;;16.00;38.60;;;;;;5068307;28;20039;-39
2022/01/21 01:04:04;;;;;;;7.38;2.72;;;16.00;38.60;;;;;;5102355;28;20463;-38
2022/01/21 01:06:29;;;;;;;7.97;2.70;;;16.00;38.60;;;;;;5101596;28;20054;-39
2022/01/21 01:08:56;;;;;;;7.97;2.60;;;16.00;38.60;;;;;;5101853;28;20008;-38
2022/01/21 01:11:42;;;;;;;7.18;2.90;;;16.00;38.50;;;;;;5083335;28;20020;-37
2022/01/21 01:27:55;;;;;;;6.88;2.30;;;15.90;38.60;;;;;;5037971;28;20095;-37
2022/01/21 01:30:22;;;;;;;7.45;2.50;;;15.90;38.60;;;;;;5036970;28;20538;-36
2022/01/21 01:32:49;;;;;;;6.47;2.60;;;15.90;38.60;;;;;;5036987;28;20053;-37
2022/01/21 01:35:35;;;;;;;8.40;2.60;;;15.90;38.60;;;;;;5037823;28;20100;-38
2022/01/21 01:40:36;;;;;;;6.97;2.60;;;15.90;38.60;;;;;;5037986;28;20057;-38
2022/01/21 01:50:47;;;;;;;5.95;2.30;;;15.80;38.70;;;;;;5038357;28;20061;-37
2022/01/21 01:53:38;;;;;;;7.10;2.47;;;15.80;38.60;;;;;;5074792;28;20055;-37
2022/01/21 01:56:06;;;;;;;6.10;2.13;;;15.80;38.60;;;;;;5085422;28;20101;-38
2022/01/21 01:58:39;;;;;;;7.32;2.30;;;15.80;38.70;;;;;;5104192;28;20016;-39
2022/01/21 02:01:08;;;;;;;7.82;2.40;;;15.80;38.60;;;;;;5104623;28;20047;-38
2022/01/21 02:03:33;;;;;;;6.93;2.30;;;15.80;38.70;;;;;;5104285;28;20065;-38
2022/01/21 02:06:00;;;;;;;6.28;1.90;;;15.80;38.60;;;;;;5103369;28;20028;-37
2022/01/21 02:08:26;;;;;;;6.45;2.25;;;15.80;38.70;;;;;;5083956;28;20395;-37
2022/01/21 02:10:53;;;;;;;6.53;2.25;;;15.90;38.50;;;;;;5099487;28;20365;-37
2022/01/21 02:13:25;;;;;;;5.18;2.00;;;15.90;38.50;;;;;;5099771;28;20095;-37
2022/01/21 02:16:13;;;;;;;7.07;2.20;;;15.90;38.40;;;;;;5099392;28;20021;-38
2022/01/21 02:21:44;;;;;;;5.25;1.75;;;16.00;38.20;;;;;;5100068;28;20038;-36
2022/01/21 02:24:23;;;;;;;6.35;2.15;;;16.10;38.40;;;;;;5098533;28;20028;-36
2022/01/21 02:26:52;;;;;;;5.82;1.90;;;16.20;38.20;;;;;;5098318;28;20498;-38
2022/01/21 02:29:28;;;;;;;6.75;2.20;;;16.40;37.90;;;;;;5098762;28;20024;-37
2022/01/21 02:31:55;;;;;;;5.47;1.95;;;16.50;37.30;;;;;;5098587;28;20013;-38
2022/01/21 02:34:21;;;;;;;6.07;2.22;;;16.70;37.00;;;;;;5097531;28;20022;-37
2022/01/21 02:36:46;;;;;;;5.63;1.88;;;16.70;36.90;;;;;;5097114;28;20099;-38
2022/01/21 02:39:12;;;;;;;6.03;2.08;;;16.70;36.90;;;;;;5100286;28;20017;-38
2022/01/21 02:41:38;;;;;;;6.40;1.98;;;16.80;36.80;;;;;;5099334;28;20024;-38
2022/01/21 02:44:04;;;;;;;7.22;1.85;;;16.80;36.70;;;;;;5098992;28;20066;-38
2022/01/21 02:46:36;;;;;;;6.10;1.77;;;16.90;36.60;;;;;;5064581;28;20082;-37
2022/01/21 02:49:02;;;;;;;5.50;1.92;;;16.90;36.50;;;;;;5099571;28;20069;-37
2022/01/21 02:51:28;;;;;;;5.15;2.03;;;17.10;36.40;;;;;;5080985;28;20043;-39
2022/01/21 02:56:19;;;;;;;4.82;1.90;;;17.20;36.10;;;;;;5080019;28;20052;-40
2022/01/21 02:58:45;;;;;;;5.28;1.80;;;17.30;36.00;;;;;;5097706;28;20057;-38
2022/01/21 03:01:11;;;;;;;5.85;1.80;;;17.30;35.80;;;;;;5097248;28;20138;-37
2022/01/21 03:03:40;;;;;;;5.03;1.70;;;17.40;35.70;;;;;;5080193;28;20012;-37
2022/01/21 03:06:06;;;;;;;6.78;1.98;;;17.50;35.60;;;;;;5097456;28;20051;-39
2022/01/21 03:08:32;;;;;;;4.88;1.70;;;17.60;35.40;;;;;;5097791;28;20070;-38
2022/01/21 03:10:58;;;;;;;4.65;1.70;;;17.60;35.30;;;;;;5079687;28;20496;-37
2022/01/21 03:13:25;;;;;;;6.85;1.92;;;17.70;35.30;;;;;;5097185;28;20497;-39
2022/01/21 03:15:51;;;;;;;5.43;1.80;;;17.70;35.10;;;;;;5097433;28;20020;-38
2022/01/21 03:18:17;;;;;;;4.55;1.90;;;17.80;35.00;;;;;;5079239;28;20013;-37
2022/01/21 03:20:43;;;;;;;5.95;2.10;;;17.90;34.90;;;;;;5097894;28;20027;-37
2022/01/21 03:23:13;;;;;;;5.22;1.60;;;18.00;34.90;;;;;;5100767;28;20042;-39
2022/01/21 03:25:39;;;;;;;7.07;1.90;;;18.00;34.80;;;;;;5104313;28;20020;-38
2022/01/21 03:28:05;;;;;;;5.72;2.08;;;18.00;34.70;;;;;;5104212;28;20039;-38
2022/01/21 03:30:33;;;;;;;5.47;1.70;;;18.00;34.70;;;;;;5085862;28;20036;-38
2022/01/21 03:32:58;;;;;;;4.13;1.60;;;18.00;34.70;;;;;;5103721;28;20016;-37
2022/01/21 03:35:25;;;;;;;5.20;1.73;;;18.10;34.60;;;;;;5104125;28;20013;-38
2022/01/21 03:37:51;;;;;;;4.63;1.45;;;18.10;34.50;;;;;;5101981;28;20027;-37
2022/01/21 03:40:16;;;;;;;5.25;1.83;;;18.10;34.50;;;;;;5099619;28;20020;-37
2022/01/21 03:42:42;;;;;;;4.70;1.67;;;18.10;34.50;;;;;;5081418;28;20092;-37
2022/01/21 03:45:12;;;;;;;5.72;1.70;;;18.20;34.50;;;;;;5099817;28;20517;-39
2022/01/21 03:47:38;;;;;;;3.75;1.52;;;18.20;34.40;;;;;;5100629;28;20028;-37
2022/01/21 03:50:24;;;;;;;5.30;1.67;;;18.20;34.30;;;;;;5100028;28;20024;-39
2022/01/21 03:52:50;;;;;;;4.13;1.70;;;18.20;34.20;;;;;;5100445;28;20035;-39
2022/01/21 03:55:16;;;;;;;6.32;2.10;;;18.30;34.30;;;;;;5100444;28;20040;-37
2022/01/21 03:57:42;;;;;;;4.30;1.52;;;18.40;34.20;;;;;;5082222;28;20115;-37
2022/01/21 04:00:09;;;;;;;3.78;1.52;;;18.40;34.10;;;;;;5100154;28;20024;-37
2022/01/21 04:02:35;;;;;;;5.55;1.80;;;18.40;34.10;;;;;;5100543;28;20376;-37
2022/01/21 04:05:01;;;;;;;5.15;1.90;;;18.40;34.10;;;;;;5082199;28;20081;-37
2022/01/21 04:07:27;;;;;;;3.88;1.60;;;18.40;34.20;;;;;;5082812;28;20031;-38
2022/01/21 04:09:53;;;;;;;5.35;1.90;;;18.40;34.10;;;;;;5103584;28;20032;-38
2022/01/21 04:12:19;;;;;;;4.35;1.80;;;18.40;34.00;;;;;;5103533;28;20012;-40
2022/01/21 04:14:45;;;;;;;4.93;1.88;;;18.50;34.10;;;;;;5104414;28;20030;-39
2022/01/21 04:17:11;;;;;;;4.07;1.50;;;18.50;33.90;;;;;;5085938;28;20378;-38
2022/01/21 04:19:39;;;;;;;5.88;1.85;;;18.60;33.90;;;;;;5104025;28;20097;-38
2022/01/21 04:22:04;;;;;;;4.65;1.73;;;18.60;33.80;;;;;;5104253;28;20012;-39
2022/01/21 04:24:31;;;;;;;5.75;1.70;;;18.70;33.80;;;;;;5101256;28;20025;-38
2022/01/21 04:26:57;;;;;;;4.47;1.70;;;18.80;33.70;;;;;;5102289;28;20017;-38
2022/01/21 04:29:22;;;;;;;5.00;1.92;;;18.80;33.50;;;;;;5085993;28;20083;-38
2022/01/21 04:31:48;;;;;;;5.07;1.60;;;18.90;33.50;;;;;;5104175;28;20039;-37
2022/01/21 04:34:14;;;;;;;5.97;1.77;;;18.90;33.30;;;;;;5085783;28;20017;-39
2022/01/21 04:36:41;;;;;;;4.35;1.38;;;19.00;33.30;;;;;;5086481;28;20028;-40
2022/01/21 04:39:14;;;;;;;5.97;1.58;;;19.00;33.20;;;;;;5085732;28;20016;-39
2022/01/21 04:49:40;;;;;;;3.95;1.60;;;19.30;32.80;;;;;;5087356;28;20090;-38
2022/01/21 04:52:06;;;;;;;5.95;1.88;;;19.30;32.70;;;;;;5083565;28;20012;-37
2022/01/21 04:54:33;;;;;;;6.45;1.90;;;19.30;32.70;;;;;;5101048;28;20413;-37
2022/01/21 04:56:59;;;;;;;5.10;1.95;;;19.50;32.70;;;;;;5101928;28;20012;-38
2022/01/21 04:59:25;;;;;;;3.65;1.48;;;19.50;32.50;;;;;;5101420;28;20043;-37
2022/01/21 05:01:52;;;;;;;4.63;1.65;;;19.60;33.00;;;;;;5101428;28;20103;-37
2022/01/21 05:04:19;;;;;;;3.97;1.65;;;19.70;32.30;;;;;;5101454;28;20084;-37
2022/01/21 05:06:45;;;;;;;3.90;1.52;;;19.70;32.20;;;;;;5101269;28;20020;-38
2022/01/21 05:09:11;;;;;;;3.95;1.48;;;19.70;32.20;;;;;;5082769;28;20091;-38
2022/01/21 05:11:38;;;;;;;4.38;1.65;;;19.80;32.20;;;;;;5083326;28;20059;-38
2022/01/21 05:17:04;;;;;;;5.18;1.73;;;19.90;32.00;;;;;;5017755;28;20424;-37
2022/01/21 05:19:30;;;;;;;3.90;1.60;;;20.00;31.90;;;;;;5018081;28;20037;-39
2022/01/21 05:22:01;;;;;;;3.30;1.35;;;20.00;31.90;;;;;;5017643;28;20052;-38
2022/01/21 05:24:28;;;;;;;5.07;1.40;;;20.10;31.80;;;;;;5017937;28;20060;-37
2022/01/21 05:26:56;;;;;;;3.30;1.30;;;20.10;31.70;;;;;;5017194;28;20133;-37
2022/01/21 05:29:23;;;;;;;5.63;2.08;;;20.20;31.60;;;;;;5017247;28;20038;-38
2022/01/21 05:31:50;;;;;;;4.72;1.52;;;20.20;31.50;;;;;;5017718;28;20014;-38
2022/01/21 05:34:16;;;;;;;5.70;1.52;;;20.20;31.50;;;;;;5018118;28;20106;-38
2022/01/21 05:36:43;;;;;;;3.85;1.52;;;20.30;31.40;;;;;;5001426;28;20069;-38
2022/01/21 05:39:12;;;;;;;3.70;1.58;;;20.40;31.40;;;;;;5018784;28;20072;-38
2022/01/21 05:41:38;;;;;;;3.33;1.30;;;20.40;31.30;;;;;;5019836;28;20030;-37
2022/01/21 05:44:14;;;;;;;4.57;1.75;;;20.40;31.20;;;;;;5019987;28;20020;-37
2022/01/21 05:49:14;;;;;;;3.22;1.40;;;20.50;31.10;;;;;;5019446;28;20057;-37
2022/01/21 05:51:43;;;;;;;3.88;1.40;;;20.60;31.00;;;;;;5020463;28;20022;-37
2022/01/21 05:54:09;;;;;;;4.47;1.50;;;20.70;30.90;;;;;;5075468;28;20043;-37
2022/01/21 05:56:37;;;;;;;4.20;1.50;;;20.70;30.80;;;;;;5083486;28;20115;-37
2022/01/21 05:59:04;;;;;;;3.63;1.45;;;20.80;30.80;;;;;;5100457;28;20023;-38
2022/01/21 06:01:30;;;;;;;4.25;1.63;;;20.80;30.80;;;;;;5100588;28;20009;-38
2022/01/21 06:03:55;;;;;;;3.08;1.40;;;20.80;30.80;;;;;;5101795;28;20039;-38
2022/01/21 06:06:23;;;;;;;3.58;1.45;;;20.90;30.70;;;;;;5101778;28;20036;-37
2022/01/21 06:08:50;;;;;;;3.10;1.50;;;20.90;30.70;;;;;;5082678;28;20031;-37
2022/01/21 06:11:16;;;;;;;2.97;1.50;;;20.90;30.70;;;;;;5081543;28;20051;-37
2022/01/21 06:13:45;;;;;;;2.38;1.10;;;21.00;30.70;;;;;;5098686;28;20035;-38
2022/01/21 06:16:11;;;;;;;3.00;1.55;;;21.00;30.60;;;;;;5082237;28;20054;-37
2022/01/21 06:18:37;;;;;;;4.22;1.40;;;21.10;30.60;;;;;;5080388;28;20008;-37
2022/01/21 06:21:04;;;;;;;4.32;1.60;;;21.10;30.60;;;;;;5097855;28;20024;-38
2022/01/21 06:23:30;;;;;;;5.38;1.70;;;21.20;30.60;;;;;;5097983;28;20053;-38
2022/01/21 06:25:56;;;;;;;3.85;1.70;;;21.20;30.60;;;;;;5079770;28;20500;-38
2022/01/21 06:28:24;;;;;;;3.30;1.38;;;21.20;30.50;;;;;;5098268;28;20073;-37
2022/01/21 06:30:50;;;;;;;3.75;1.60;;;21.30;30.50;;;;;;5081072;28;20031;-37
2022/01/21 06:33:16;;;;;;;3.80;1.70;;;21.30;30.50;;;;;;5098106;28;20004;-37
2022/01/21 06:35:42;;;;;;;6.47;1.50;;;21.30;30.50;;;;;;5080742;28;20013;-39
2022/01/21 06:38:07;;;;;;;4.22;1.38;;;21.30;30.50;;;;;;5080634;28;20049;-38
2022/01/21 06:40:33;;;;;;;6.13;1.70;;;21.40;30.60;;;;;;5097768;28;20371;-36
2022/01/21 06:43:02;;;;;;;3.97;1.60;;;21.40;30.50;;;;;;5080614;28;20024;-37
2022/01/21 06:45:28;;;;;;;7.70;1.80;;;21.40;30.50;;;;;;5098385;28;20032;-37
2022/01/21 06:47:59;;;;;;;5.65;1.67;;;21.50;30.50;;;;;;5098069;28;20022;-36
2022/01/21 06:50:26;;;;;;;4.25;1.52;;;21.50;30.50;;;;;;5098800;28;20036;-37
2022/01/21 06:52:51;;;;;;;5.95;1.70;;;21.50;30.50;;;;;;5100031;28;20044;-38
2022/01/21 06:55:19;;;;;;;9.02;1.63;;;21.60;30.40;;;;;;5095168;28;20075;-38
2022/01/21 06:57:45;;;;;;;10.50;2.67;;;21.60;30.40;;;;;;5098850;28;20017;-38
2022/01/21 07:00:13;;;;;;;7.15;2.10;;;21.70;30.40;;;;;;5101655;28;20070;-38
2022/01/21 07:02:39;;;;;;;6.22;2.03;;;21.70;30.30;;;;;;5100551;28;20020;-37
2022/01/21 07:05:06;;;;;;;5.55;1.85;;;21.80;30.40;;;;;;5081789;28;20016;-37
2022/01/21 07:07:33;;;;;;;8.40;1.92;;;21.80;30.30;;;;;;5096434;28;20020;-37
2022/01/21 07:10:01;;;;;;;7.38;1.75;;;21.80;30.30;;;;;;5095888;28;20055;-37
2022/01/21 07:12:27;;;;;;;9.38;2.15;;;21.80;30.30;;;;;;5096206;28;20020;-37
2022/01/21 07:14:53;;;;;;;5.88;2.10;;;21.80;30.30;;;;;;5077137;28;20047;-36
2022/01/21 07:17:19;;;;;;;6.95;1.88;;;21.90;30.40;;;;;;5077603;28;20012;-36
2022/01/21 07:19:47;;;;;;;8.70;1.95;;;21.80;30.40;;;;;;5076968;28;20016;-36
2022/01/21 07:22:13;;;;;;;6.95;2.10;;;21.90;30.40;;;;;;5096220;28;20027;-38
2022/01/21 07:24:39;;;;;;;15.73;2.67;;;21.80;30.50;;;;;;5076817;28;20020;-36
2022/01/21 07:27:04;;;;;;;24.60;2.80;;;21.70;31.20;;;;;;5078090;28;20079;-35
2022/01/21 07:29:33;;;;;;;18.38;3.33;;;21.50;32.20;;;;;;5077730;28;20095;-35
2022/01/21 07:32:02;;;;;;;20.25;3.28;;;20.40;33.00;;;;;;5077517;28;20016;-36
2022/01/21 07:34:28;;;;;;;17.60;2.97;;;19.20;35.10;;;;;;5078354;28;20013;-36
2022/01/21 07:36:59;;;;;;;12.68;3.10;;;18.70;37.20;;;;;;5078274;28;20058;-36
2022/01/21 07:39:31;;;;;;;14.52;3.60;;;18.60;36.90;;;;;;5096085;28;20020;-36
2022/01/21 07:42:01;;;;;;;12.65;4.28;;;18.50;36.00;;;;;;5096388;28;20020;-37
2022/01/21 07:44:30;;;;;;;11.23;4.35;;;18.50;36.70;;;;;;5096526;28;20078;-38
2022/01/21 07:47:00;;;;;;;12.02;3.70;;;18.50;36.30;;;;;;5096967;28;20024;-37
2022/01/21 07:49:29;;;;;;;12.50;4.10;;;18.40;35.40;;;;;;5096540;28;20116;-38
2022/01/21 07:51:59;;;;;;;16.15;4.30;;;18.30;35.80;;;;;;5096595;28;20016;-37
2022/01/21 07:54:25;;;;;;;12.73;4.38;;;18.20;35.60;;;;;;5096272;28;20028;-38
2022/01/21 07:56:51;;;;;;;15.82;4.07;;;18.20;35.70;;;;;;5078090;28;20028;-37
2022/01/21 07:59:19;;;;;;;11.27;3.33;;;18.10;36.10;;;;;;5095998;28;20042;-38
2022/01/21 08:01:50;;;;;;;12.45;3.70;;;17.70;36.10;;;;;;5096047;28;20012;-38
2022/01/21 08:04:15;;;;;;;11.00;4.10;;;17.40;36.90;;;;;;5096158;28;20016;-41
2022/01/21 08:06:41;;;;;;;10.65;3.58;;;17.30;37.50;;;;;;5096541;28;20142;-37
2022/01/21 08:09:11;;;;;;;10.52;3.72;;;17.50;36.80;;;;;;5095325;28;20436;-38
2022/01/21 08:11:37;;;;;;;12.02;3.40;;;17.30;36.70;;;;;;5061052;28;20012;-38
2022/01/21 08:14:03;;;;;;;11.68;3.67;;;17.50;36.70;;;;;;5076624;28;20383;-38
2022/01/21 08:16:28;;;;;;;29.65;5.40;;;17.70;37.00;;;;;;5076244;28;20127;-37
2022/01/21 08:18:54;;;;;;;17.10;3.80;;;17.60;37.40;;;;;;5076161;28;20016;-38
2022/01/21 08:21:20;;;;;;;17.13;3.95;;;17.50;38.30;;;;;;5076398;28;20051;-38
2022/01/21 08:23:48;;;;;;;18.05;3.58;;;17.30;38.90;;;;;;5094340;28;20548;-38
2022/01/21 08:26:14;;;;;;;10.98;2.90;;;17.30;40.10;;;;;;5095328;28;20024;-38
2022/01/21 08:28:40;;;;;;;11.23;3.20;;;17.90;38.30;;;;;;5096241;28;20020;-38
2022/01/21 08:31:05;;;;;;;14.90;3.60;;;18.30;37.10;;;;;;5095734;28;20494;-38
2022/01/21 08:33:31;;;;;;;14.13;3.67;;;18.60;36.40;;;;;;5095654;28;20024;-37
2022/01/21 08:35:59;;;;;;;10.40;3.60;;;18.80;35.70;;;;;;5095584;28;20016;-38
2022/01/21 08:38:25;;;;;;;8.85;2.70;;;18.90;35.20;;;;;;5094682;28;20021;-38
2022/01/21 08:40:51;;;;;;;8.48;3.03;;;19.00;34.80;;;;;;5095189;28;20021;-38
2022/01/21 08:43:19;;;;;;;8.82;3.00;;;19.10;34.70;;;;;;5095263;28;20031;-39
2022/01/21 08:45:47;;;;;;;12.88;3.10;;;19.20;34.40;;;;;;5095281;28;20024;-39
2022/01/21 08:48:13;;;;;;;12.70;3.00;;;19.20;34.30;;;;;;5095778;28;20020;-38
2022/01/21 08:50:39;;;;;;;8.98;2.75;;;19.30;34.20;;;;;;5095203;28;20020;-39
2022/01/21 08:53:36;;;;;;;10.95;2.75;;;19.50;34.20;;;;;;5094717;28;20086;-38
2022/01/21 08:55:53;;;;;;;8.15;2.83;;;19.60;33.40;;;;;;5093850;28;20036;-38
2022/01/21 08:58:18;;;;;;;9.48;2.65;;;20.10;32.90;;;;;;5077227;28;20081;-42
2022/01/21 09:04:06;;;;;;;7.35;2.20;;;21.00;31.90;;;;;;5093828;28;20118;-37
2022/01/21 09:06:33;;;;;;;11.07;3.33;;;21.40;31.70;;;;;;5095515;28;20023;-38
2022/01/21 09:08:59;;;;;;;11.63;2.45;;;21.60;31.10;;;;;;5095278;28;20102;-37
2022/01/21 09:11:26;;;;;;;11.40;3.28;;;21.70;30.80;;;;;;5096087;28;20035;-37
2022/01/21 09:13:56;;;;;;;9.43;2.33;;;21.90;30.60;;;;;;5095115;28;20066;-36
2022/01/21 09:16:22;;;;;;;9.70;2.70;;;22.10;30.20;;;;;;5074646;28;20430;-37
2022/01/21 09:18:51;;;;;;;12.63;2.95;;;22.30;30.00;;;;;;5074057;28;20012;-35
2022/01/21 09:21:24;;;;;;;11.63;2.83;;;22.40;29.80;;;;;;5092394;28;20020;-36
2022/01/21 09:23:50;;;;;;;13.38;3.10;;;22.40;30.20;;;;;;5093963;28;20016;-34
2022/01/21 09:26:22;;;;;;;17.33;2.70;;;22.20;30.80;;;;;;5093425;28;20026;-34
2022/01/21 09:28:51;;;;;;;20.80;3.35;;;22.20;31.10;;;;;;5093636;28;20012;-35
2022/01/21 09:31:17;;;;;;;14.65;3.08;;;22.10;31.30;;;;;;5093211;28;20028;-34
2022/01/21 09:33:43;;;;;;;13.73;3.00;;;22.10;31.50;;;;;;5091858;28;20040;-33
2022/01/21 09:36:10;;;;;;;11.93;2.80;;;21.90;31.70;;;;;;5093645;28;20107;-34
2022/01/21 09:38:36;;;;;;;11.57;3.38;;;21.90;31.70;;;;;;5075825;28;20099;-37
2022/01/21 09:41:01;;;;;;;13.82;3.72;;;22.00;31.50;;;;;;5093903;28;20043;-34
2022/01/21 09:43:30;;;;;;;12.13;3.28;;;22.00;31.40;;;;;;5075406;28;20112;-35
2022/01/21 09:45:56;;;;;;;13.68;2.88;;;22.10;31.40;;;;;;5075354;28;20008;-35
2022/01/21 09:48:29;;;;;;;10.57;2.92;;;22.00;31.30;;;;;;5092961;28;20031;-34
2022/01/21 09:50:58;;;;;;;10.35;3.10;;;21.90;31.40;;;;;;5093266;28;20102;-35
2022/01/21 09:53:31;;;;;;;9.35;3.42;;;21.90;31.60;;;;;;5093155;28;20051;-35
2022/01/21 09:56:00;;;;;;;8.00;3.05;;;21.80;31.50;;;;;;5093517;28;20008;-35
2022/01/21 09:58:27;;;;;;;10.13;3.35;;;21.90;31.40;;;;;;5076526;28;20471;-35
2022/01/21 10:00:54;;;;;;;11.73;3.10;;;21.90;31.30;;;;;;5093552;28;20022;-35
2022/01/21 10:03:22;;;;;;;9.68;2.55;;;21.90;31.40;;;;;;5094177;28;20039;-37
2022/01/21 10:05:48;;;;;;;10.25;2.55;;;21.90;31.50;;;;;;5095015;28;20038;-36
2022/01/21 10:08:14;;;;;;;12.50;3.00;;;21.90;31.10;;;;;;5075264;28;20020;-36
2022/01/21 10:10:44;;;;;;;11.80;2.75;;;22.00;31.00;;;;;;5092316;28;20020;-35
2022/01/21 10:13:10;;;;;;;25.70;3.47;;;22.10;30.70;;;;;;5075040;28;20074;-36
2022/01/21 10:15:37;;;;;;;15.40;3.25;;;22.00;30.80;;;;;;5093269;28;20035;-34
2022/01/21 10:18:08;;;;;;;11.15;2.78;;;22.00;30.70;;;;;;5092982;28;20024;-35
2022/01/21 10:20:34;;;;;;;10.50;2.80;;;22.00;30.70;;;;;;5092513;28;20498;-35
2022/01/21 10:23:07;;;;;;;22.67;4.70;;;22.00;30.70;;;;;;5058024;28;20020;-35
2022/01/21 10:25:34;;;;;;;13.27;3.00;;;22.00;30.70;;;;;;5093326;28;20037;-35
2022/01/21 10:28:20;;;;;;;10.00;3.30;;;21.80;31.00;;;;;;5093160;28;20501;-34
2022/01/21 10:30:51;;;;;;;10.02;3.55;;;21.50;31.10;;;;;;5092975;28;20103;-34
2022/01/21 10:33:26;;;;;;;9.65;2.45;;;21.20;31.40;;;;;;5097059;28;20008;-34
2022/01/21 10:36:20;;;;;;;12.75;2.80;;;21.00;31.80;;;;;;5097246;28;20023;-35
2022/01/21 10:38:59;;;;;;;13.98;3.20;;;20.80;32.10;;;;;;5068855;28;20024;-35
2022/01/21 10:41:30;;;;;;;13.85;3.05;;;20.80;32.30;;;;;;5096919;28;20039;-35
2022/01/21 10:44:25;;;;;;;10.40;3.15;;;20.70;32.50;;;;;;5097223;28;20095;-34
2022/01/21 10:47:08;;;;;;;11.68;3.08;;;20.70;32.70;;;;;;5093522;28;20020;-34
2022/01/21 10:49:35;;;;;;;13.75;2.88;;;20.60;32.80;;;;;;5096609;28;20106;-34
2022/01/21 10:52:01;;;;;;;12.32;2.65;;;20.60;32.80;;;;;;5096596;28;20455;-34
2022/01/21 10:54:29;;;;;;;8.85;2.90;;;20.50;33.10;;;;;;5096610;28;20039;-34
2022/01/21 10:57:15;;;;;;;11.23;2.17;;;20.40;33.30;;;;;;5097120;28;20114;-35
2022/01/21 11:00:09;;;;;;;14.30;2.90;;;20.30;33.70;;;;;;5100188;28;20050;-35
2022/01/21 11:02:48;;;;;;;10.82;2.50;;;20.20;33.60;;;;;;5100526;28;20012;-36
2022/01/21 11:05:26;;;;;;;11.60;2.42;;;20.20;33.70;;;;;;5102298;28;20016;-35
2022/01/21 11:08:05;;;;;;;8.63;2.67;;;20.30;33.70;;;;;;5100791;28;20024;-35
2022/01/21 11:13:20;;;;;;;8.60;2.40;;;20.50;33.40;;;;;;5100524;28;20021;-35
2022/01/21 11:15:55;;;;;;;10.65;2.38;;;20.50;33.20;;;;;;5099347;28;20016;-36
2022/01/21 11:18:22;;;;;;;7.32;2.00;;;20.60;33.10;;;;;;5100608;28;20024;-36
2022/01/21 11:20:50;;;;;;;11.27;2.13;;;20.60;33.10;;;;;;5101089;28;20047;-37
2022/01/21 11:23:16;;;;;;;7.80;2.20;;;20.70;33.20;;;;;;5099967;28;20043;-36
2022/01/21 11:26:00;;;;;;;9.52;2.00;;;20.70;33.10;;;;;;5100116;28;20087;-37
2022/01/21 11:28:46;;;;;;;10.32;2.25;;;20.70;33.00;;;;;;5101039;28;20016;-35
2022/01/21 11:31:13;;;;;;;7.40;1.85;;;20.80;33.00;;;;;;5100254;28;20023;-36
2022/01/21 11:33:39;;;;;;;16.20;2.15;;;20.80;33.10;;;;;;5098990;28;20103;-36
2022/01/21 11:36:10;;;;;;;8.30;2.33;;;20.80;33.10;;;;;;5079837;28;20028;-35
2022/01/21 11:38:39;;;;;;;8.18;2.33;;;20.80;33.20;;;;;;5077874;28;20099;-35
2022/01/21 11:41:05;;;;;;;6.63;1.98;;;20.70;33.20;;;;;;5095587;28;20015;-35
2022/01/21 11:43:33;;;;;;;8.13;2.60;;;20.70;33.40;;;;;;5095932;28;20024;-35
2022/01/21 11:51:28;;;;;;;12.77;2.15;;;20.70;34.10;;;;;;5077137;28;20032;-35
2022/01/21 11:53:57;;;;;;;13.82;2.42;;;20.80;34.90;;;;;;5094597;28;20048;-35
2022/01/21 11:56:46;;;;;;;11.65;2.22;;;20.90;35.50;;;;;;5094852;28;20008;-35
2022/01/21 11:59:25;;;;;;;13.63;2.35;;;21.10;35.40;;;;;;5094481;28;20041;-34
2022/01/21 12:01:54;;;;;;;11.50;2.13;;;21.20;35.30;;;;;;5094472;28;20046;-34
2022/01/21 12:04:31;;;;;;;13.77;2.38;;;21.30;35.70;;;;;;5094691;28;20024;-36
2022/01/21 12:07:02;;;;;;;14.13;2.50;;;21.10;35.80;;;;;;5094548;28;20027;-37
2022/01/21 12:09:54;;;;;;;12.13;2.78;;;20.90;35.40;;;;;;5059981;28;20467;-36
2022/01/21 12:12:19;;;;;;;17.00;3.42;;;20.80;35.60;;;;;;5076522;28;20032;-36
2022/01/21 12:14:52;;;;;;;13.20;2.80;;;20.70;36.10;;;;;;5094498;28;20024;-35
2022/01/21 12:17:42;;;;;;;10.70;2.40;;;20.60;36.20;;;;;;5094550;28;20023;-35
2022/01/21 12:20:09;;;;;;;8.23;2.15;;;20.40;36.50;;;;;;5094052;28;20050;-35
2022/01/21 12:22:34;;;;;;;14.07;2.60;;;20.20;36.80;;;;;;5076010;28;20019;-37
2022/01/21 12:25:11;;;;;;;10.10;2.45;;;20.20;36.90;;;;;;5093871;28;20028;-34
2022/01/21 12:27:38;;;;;;;13.63;2.38;;;20.10;36.90;;;;;;5093599;28;20028;-35
2022/01/21 12:30:26;;;;;;;16.42;2.75;;;20.20;37.10;;;;;;5093999;28;20105;-35
2022/01/21 12:32:59;;;;;;;13.68;2.60;;;20.20;37.20;;;;;;5094346;28;20009;-34
2022/01/21 12:35:25;;;;;;;13.25;2.50;;;20.20;37.20;;;;;;5093997;28;20088;-35
2022/01/21 12:41:00;;;;;;;15.40;2.95;;;20.10;37.50;;;;;;4991580;28;20030;-35
2022/01/21 12:43:48;;;;;;;23.35;3.08;;;20.00;37.90;;;;;;4991935;28;20031;-36
2022/01/21 12:46:15;;;;;;;22.35;3.60;;;19.90;38.40;;;;;;4992680;28;20046;-36
2022/01/21 12:48:49;;;;;;;19.75;3.40;;;20.00;39.00;;;;;;4992822;28;20049;-36
2022/01/21 12:51:57;;;;;;;15.40;2.67;;;20.10;38.70;;;;;;4992438;28;20042;-35
2022/01/21 12:56:53;;;;;;;19.20;3.08;;;20.20;38.30;;;;;;4993024;28;20045;-37
2022/01/21 12:59:25;;;;;;;16.02;2.80;;;20.20;38.30;;;;;;4992226;28;20042;-35
2022/01/21 13:01:51;;;;;;;20.83;3.95;;;20.20;38.20;;;;;;4976310;28;20046;-35
2022/01/21 13:04:45;;;;;;;16.17;2.67;;;20.10;38.30;;;;;;4992220;28;20374;-35
2022/01/21 13:07:28;;;;;;;15.23;2.80;;;20.10;38.40;;;;;;4991902;28;20094;-35
2022/01/21 13:10:02;;;;;;;15.27;2.75;;;20.10;38.30;;;;;;4991829;28;20046;-36
2022/01/21 13:13:01;;;;;;;14.70;2.65;;;20.10;38.50;;;;;;4991893;28;20191;-36
2022/01/21 13:15:52;;;;;;;13.55;2.65;;;20.20;38.40;;;;;;4988695;28;20026;-36
2022/01/21 13:18:28;;;;;;;12.38;2.60;;;20.30;38.40;;;;;;5093801;28;20024;-37
2022/01/21 13:20:56;;;;;;;13.88;2.80;;;20.40;38.20;;;;;;5093403;28;20028;-37
2022/01/21 13:23:40;;;;;;;14.43;2.88;;;20.40;38.00;;;;;;5093379;28;20023;-36
2022/01/21 13:26:17;;;;;;;11.02;2.85;;;20.50;37.90;;;;;;5076084;28;20023;-36
2022/01/21 13:29:03;;;;;;;17.75;2.83;;;20.50;37.80;;;;;;5093909;28;20091;-35
2022/01/21 13:31:36;;;;;;;21.63;3.15;;;20.40;38.00;;;;;;5075064;28;20024;-35
2022/01/21 13:34:13;;;;;;;23.60;3.15;;;20.10;38.00;;;;;;5093293;28;20054;-35
2022/01/21 13:36:46;;;;;;;20.08;2.92;;;19.30;39.70;;;;;;5093402;28;20027;-39
2022/01/21 13:39:21;;;;;;;20.33;2.90;;;19.70;39.30;;;;;;5074652;28;20028;-35
2022/01/21 13:41:53;;;;;;;13.70;2.60;;;19.90;38.60;;;;;;5093543;28;20020;-35
2022/01/21 13:44:42;;;;;;;14.68;3.38;;;19.60;38.30;;;;;;5093395;28;20027;-36
2022/01/21 13:47:25;;;;;;;11.52;2.38;;;19.40;38.90;;;;;;5093047;28;20016;-35
2022/01/21 13:49:53;;;;;;;11.40;3.15;;;19.70;38.30;;;;;;5092968;28;20035;-37
2022/01/21 13:52:26;;;;;;;11.35;2.70;;;19.90;37.90;;;;;;5093156;28;20032;-35
2022/01/21 13:54:55;;;;;;;9.13;3.08;;;19.80;37.70;;;;;;5074678;28;20048;-36
2022/01/21 13:57:29;;;;;;;11.38;2.40;;;19.00;39.60;;;;;;5092632;28;20016;-34
2022/01/21 13:59:55;;;;;;;11.95;2.78;;;18.30;40.20;;;;;;5092686;28;20016;-33
2022/01/21 14:02:21;;;;;;;7.20;2.25;;;18.50;40.40;;;;;;5092905;28;20040;-34
2022/01/21 14:04:57;;;;;;;10.90;2.35;;;19.00;39.20;;;;;;5091968;28;20109;-34
2022/01/21 14:07:26;;;;;;;8.45;1.90;;;19.00;39.00;;;;;;5092626;28;20073;-35
2022/01/21 14:09:52;;;;;;;11.02;2.25;;;19.00;38.50;;;;;;5092375;28;20094;-34